Marion, IL

8:55 AM CST on February 23, 2017 (GMT -0600)
WB0VTM - HAM RADIO | | Change Station

Elev 492 ft 37.72 °N, 88.95 °W | Updated 1 minute ago

Mostly Cloudy
Mostly Cloudy
61.3 °F
Feels Like 61.3 °F
N
5.0
Wind Variable Wind from South
Gusts 8.5 mph

Today
High -- | Low -- °F
--% Chance of Precip.
Yesterday
High -- | Low -- °F
Precip. -- in
Pressure 29.78 in
Visibility 10.0 miles
Clouds Mostly Cloudy 600 ft
Mostly Cloudy 1100 ft
Dew Point 58 °F
Humidity 90%
Rainfall 0.00 in
Snow Depth Not available.
6:34 AM 5:43 PM
Waning Crescent, 10% visible
METAR KMWA 231445Z 19005KT 10SM BKN006 BKN011 15/15 A2978
Pressure 29.78 in
Visibility 10.0 miles
Clouds Mostly Cloudy 600 ft
Mostly Cloudy 1100 ft
Dew Point 58 °F
Humidity 90%
Rainfall 0.00 in
Snow Depth Not available.
6:34 AM 5:43 PM
Waning Crescent, 10% visible
METAR KMWA 231445Z 19005KT 10SM BKN006 BKN011 15/15 A2978

Get Your Daily Forecast Email!

Thanks for signing up!

Be on the lookout for a verification email in your inbox.

You'll start receiving the daily forecast at 8 AM.

×

10-Day Weather Forecast

Almanac

Astronomy

Feb. 23, 2017 Rise Set
Actual Time
Civil Twilight
Nautical Twilight
Astronomical Twilight
Moon
Length of Visible Light
Length of Day
Tomorrow will be .
, % of the Moon is Illuminated

Today's Extremes

State Highs State Lows

Community

WunderPhotos

Upload Photos

1,962,540 photos uploaded!

WunderBlog® & News

Nearby

Air Quality

  Air Quality AQ Index Pollutant
Not available.

Snow Depth

Station Depth Elevation

Earthquake Activity

City Distance Mag. Time & Date
Minimum magnitude displayed is 2.5.

Coastal Water Temperatures

Place Temperature

Stations

Nearby Weather Stations

Station Location Temp. Windchill Dew Point Humidity Wind Precip. Elev Updated Type
                   

Watches & Warnings

There are currently no watches in effect.